Time;durP1;ratioP1;P1;durP2;ratioP2;P2;SDS_P1;SDS_P2;PMS_P1;PMS_P2;Temp;Humidity;BMP_temperature;BMP_pressure;BME280_temperature;BME280_humidity;BME280_pressure;Samples;Min_cycle;Max_cycle;Signal;HPM_P1;HPM_P2
2023/01/31 00:01:19;;;;;;;6.97;6.20;;;3.20;99.90;;;;;;5047081;28;20191;-85
2023/01/31 00:03:46;;;;;;;6.80;6.10;;;3.20;99.90;;;;;;5039493;28;20204;-83
2023/01/31 00:06:12;;;;;;;9.17;6.40;;;3.10;99.90;;;;;;5040546;28;20236;-86
2023/01/31 00:08:38;;;;;;;7.20;6.23;;;3.00;99.90;;;;;;5046923;28;20208;-85
2023/01/31 00:11:03;;;;;;;6.70;6.00;;;2.90;99.90;;;;;;5044665;28;20208;-86
2023/01/31 00:13:29;;;;;;;6.97;5.87;;;2.90;99.90;;;;;;5041862;28;20211;-85
2023/01/31 00:15:55;;;;;;;5.93;5.40;;;3.00;99.90;;;;;;5038302;28;20221;-86
2023/01/31 00:18:21;;;;;;;6.03;5.37;;;3.00;99.90;;;;;;5037801;28;20251;-86
2023/01/31 00:20:47;;;;;;;6.13;5.23;;;3.00;99.90;;;;;;5036009;28;20189;-86
2023/01/31 00:23:13;;;;;;;6.00;5.40;;;2.90;99.90;;;;;;5035945;28;20200;-86
2023/01/31 00:25:38;;;;;;;7.77;6.40;;;3.00;99.90;;;;;;5042494;28;20232;-86
2023/01/31 00:28:04;;;;;;;5.70;5.20;;;2.90;99.90;;;;;;5045067;28;20264;-86
2023/01/31 00:30:30;;;;;;;7.37;5.90;;;2.80;99.90;;;;;;5044779;28;20295;-86
2023/01/31 00:32:55;;;;;;;6.17;5.37;;;2.70;99.90;;;;;;5043526;28;20185;-85
2023/01/31 00:35:21;;;;;;;5.73;5.10;;;2.70;99.90;;;;;;5035871;28;20195;-86
2023/01/31 00:37:47;;;;;;;6.60;5.53;;;2.70;99.90;;;;;;5035008;28;20462;-86
2023/01/31 00:40:12;;;;;;;6.77;6.07;;;2.70;99.90;;;;;;5035447;28;20326;-85
2023/01/31 00:42:38;;;;;;;6.37;5.77;;;2.60;99.90;;;;;;5036182;28;20204;-86
2023/01/31 00:45:05;;;;;;;6.17;5.50;;;2.60;99.90;;;;;;5035608;28;20180;-85
2023/01/31 00:47:30;;;;;;;7.57;6.53;;;2.60;99.90;;;;;;5034336;28;20253;-86
2023/01/31 00:49:56;;;;;;;6.57;5.97;;;2.50;99.90;;;;;;5036015;28;20314;-85
2023/01/31 00:52:22;;;;;;;6.63;5.90;;;2.50;99.90;;;;;;5035154;28;20201;-85
2023/01/31 00:54:47;;;;;;;7.73;5.87;;;2.40;99.90;;;;;;5030212;28;20189;-85
2023/01/31 00:57:13;;;;;;;8.13;6.20;;;2.30;99.90;;;;;;5036100;28;20219;-86
2023/01/31 00:59:38;;;;;;;6.47;5.77;;;2.30;99.90;;;;;;5037379;28;20247;-85
2023/01/31 01:02:04;;;;;;;7.37;6.10;;;2.30;99.90;;;;;;5036730;28;20542;-86
2023/01/31 01:04:29;;;;;;;6.70;6.00;;;2.30;99.90;;;;;;5036447;28;20226;-86
2023/01/31 01:06:55;;;;;;;6.70;6.10;;;2.30;99.90;;;;;;5035540;28;20181;-85
2023/01/31 01:09:21;;;;;;;6.57;5.80;;;2.30;99.90;;;;;;5034763;28;20201;-85
2023/01/31 01:11:48;;;;;;;7.50;6.33;;;2.40;99.90;;;;;;5034365;28;20617;-85
2023/01/31 01:14:14;;;;;;;7.33;6.57;;;2.30;99.90;;;;;;5035383;28;20651;-86
2023/01/31 01:16:41;;;;;;;7.60;6.33;;;2.30;99.90;;;;;;5032934;28;20234;-84
2023/01/31 01:19:17;;;;;;;7.43;6.53;;;2.20;99.90;;;;;;5015353;28;20202;-86
2023/01/31 01:21:43;;;;;;;7.30;6.07;;;2.20;99.90;;;;;;5028016;28;20176;-85
2023/01/31 01:24:15;;;;;;;7.10;6.40;;;2.30;99.90;;;;;;5036726;28;20227;-85
2023/01/31 01:26:41;;;;;;;6.93;6.23;;;2.20;99.90;;;;;;5034242;28;20188;-85
2023/01/31 01:29:07;;;;;;;7.27;6.10;;;2.30;99.90;;;;;;5034988;28;20266;-85
2023/01/31 01:31:32;;;;;;;6.23;5.63;;;2.40;99.90;;;;;;5035404;28;20201;-86
2023/01/31 01:34:12;;;;;;;7.10;6.40;;;2.40;99.90;;;;;;5034356;28;20188;-85
2023/01/31 01:36:38;;;;;;;6.90;5.80;;;2.20;99.90;;;;;;5033872;28;20231;-85
2023/01/31 01:39:05;;;;;;;7.17;6.07;;;2.40;99.90;;;;;;5034279;28;20211;-86
2023/01/31 01:41:35;;;;;;;7.43;6.63;;;2.20;99.90;;;;;;5034669;28;20181;-87
2023/01/31 01:44:03;;;;;;;7.60;6.63;;;2.20;99.90;;;;;;5032934;28;20200;-86
2023/01/31 01:46:32;;;;;;;7.80;6.87;;;2.20;99.90;;;;;;5032777;28;20271;-86
2023/01/31 01:49:34;;;;;;;8.17;6.70;;;2.10;99.90;;;;;;5028638;28;20251;-86
2023/01/31 01:52:04;;;;;;;8.37;6.40;;;2.20;99.90;;;;;;4995491;28;20216;-85
2023/01/31 01:54:44;;;;;;;7.57;6.57;;;2.30;99.90;;;;;;5015800;28;20243;-85
2023/01/31 01:57:12;;;;;;;11.03;6.60;;;2.20;99.90;;;;;;5016431;28;20174;-84
2023/01/31 01:59:48;;;;;;;8.37;7.13;;;2.20;99.90;;;;;;5020893;28;20213;-85
2023/01/31 02:02:14;;;;;;;9.60;6.60;;;2.20;99.90;;;;;;5034607;28;20203;-86
2023/01/31 02:04:41;;;;;;;7.57;6.67;;;2.20;99.90;;;;;;5034532;28;20165;-86
2023/01/31 02:07:08;;;;;;;7.13;5.97;;;2.30;99.90;;;;;;5039019;28;20177;-86
2023/01/31 02:09:48;;;;;;;7.83;7.03;;;2.20;99.90;;;;;;5040800;28;20193;-85
2023/01/31 02:12:14;;;;;;;9.40;7.10;;;2.20;99.90;;;;;;5041083;28;20203;-86
2023/01/31 02:14:41;;;;;;;9.43;6.90;;;2.20;99.90;;;;;;5040402;28;20172;-85
2023/01/31 02:17:16;;;;;;;7.93;7.03;;;2.20;99.90;;;;;;5040126;28;20177;-85
2023/01/31 02:19:42;;;;;;;8.17;7.37;;;2.20;99.90;;;;;;5041476;28;20196;-86
2023/01/31 02:22:52;;;;;;;7.83;7.03;;;2.20;99.90;;;;;;5041560;28;20223;-85
2023/01/31 02:25:33;;;;;;;7.27;6.53;;;2.10;99.90;;;;;;5026047;28;20192;-86
2023/01/31 02:28:24;;;;;;;6.93;6.33;;;2.20;99.90;;;;;;5041754;28;20688;-85
2023/01/31 02:31:24;;;;;;;8.60;7.70;;;2.10;99.90;;;;;;5040265;28;20184;-86
2023/01/31 02:34:14;;;;;;;8.50;7.57;;;2.00;99.90;;;;;;5040227;28;20594;-86
2023/01/31 02:37:06;;;;;;;8.60;7.70;;;2.00;99.90;;;;;;5040325;28;20181;-86
2023/01/31 02:40:08;;;;;;;10.57;7.53;;;2.00;99.90;;;;;;5054590;28;20208;-85
2023/01/31 02:43:05;;;;;;;8.17;7.30;;;2.00;99.90;;;;;;5040016;28;20196;-86
2023/01/31 02:46:01;;;;;;;8.17;7.37;;;1.90;99.90;;;;;;5014864;28;21044;-85
2023/01/31 02:49:03;;;;;;;8.93;7.90;;;2.00;99.90;;;;;;5040396;28;20177;-85
2023/01/31 02:51:35;;;;;;;10.40;7.70;;;2.00;99.90;;;;;;5042423;28;20183;-84
2023/01/31 02:54:20;;;;;;;9.00;7.70;;;1.90;99.90;;;;;;5041610;28;20169;-85
2023/01/31 02:56:48;;;;;;;9.10;8.23;;;1.90;99.90;;;;;;5042015;28;20187;-85
2023/01/31 02:59:21;;;;;;;10.33;7.60;;;1.90;99.90;;;;;;5041294;28;20209;-85
2023/01/31 03:01:54;;;;;;;9.30;8.30;;;1.90;99.90;;;;;;5040361;28;20193;-86
2023/01/31 03:04:19;;;;;;;10.00;8.07;;;1.90;99.90;;;;;;5039542;28;20202;-86
2023/01/31 03:06:59;;;;;;;10.43;8.77;;;1.90;99.90;;;;;;5039903;28;20184;-86
2023/01/31 03:09:35;;;;;;;12.07;8.80;;;1.80;99.90;;;;;;5039624;28;20243;-86
2023/01/31 03:12:35;;;;;;;10.13;8.20;;;1.90;99.90;;;;;;5040175;28;20733;-87
2023/01/31 03:15:00;;;;;;;9.13;8.23;;;2.00;99.90;;;;;;5039999;28;20181;-85
2023/01/31 03:17:53;;;;;;;9.80;8.80;;;1.90;99.90;;;;;;5030644;28;20189;-86
2023/01/31 03:20:42;;;;;;;9.73;8.73;;;1.90;99.90;;;;;;5027783;28;20213;-87
2023/01/31 03:23:13;;;;;;;12.07;9.07;;;2.10;99.90;;;;;;5042287;28;20698;-86
2023/01/31 03:25:40;;;;;;;11.20;9.27;;;2.10;99.90;;;;;;5041332;28;20177;-85
2023/01/31 03:28:10;;;;;;;14.10;10.20;;;2.10;99.90;;;;;;5040334;28;20197;-86
2023/01/31 03:30:41;;;;;;;12.73;10.07;;;2.10;99.90;;;;;;5040190;28;20197;-84
2023/01/31 03:33:19;;;;;;;13.30;9.53;;;2.10;99.90;;;;;;5040403;28;20208;-85
2023/01/31 03:35:50;;;;;;;10.83;9.23;;;2.20;99.90;;;;;;5040165;28;20558;-85
2023/01/31 03:38:31;;;;;;;11.20;9.07;;;2.10;99.90;;;;;;5038901;28;20220;-85
2023/01/31 03:41:04;;;;;;;11.50;10.30;;;2.10;99.90;;;;;;5031965;28;20181;-85
2023/01/31 03:43:39;;;;;;;11.20;8.63;;;2.00;99.90;;;;;;5023053;28;20201;-85
2023/01/31 03:46:10;;;;;;;13.73;9.87;;;2.10;99.90;;;;;;5022499;28;20262;-84
2023/01/31 03:48:39;;;;;;;13.17;10.03;;;2.10;99.90;;;;;;5022896;28;20649;-85
2023/01/31 03:51:09;;;;;;;12.30;9.37;;;1.90;99.90;;;;;;5022374;28;20180;-85
2023/01/31 03:53:59;;;;;;;10.77;9.10;;;1.80;99.90;;;;;;5031838;28;20239;-85
2023/01/31 03:56:41;;;;;;;11.03;9.20;;;1.80;99.90;;;;;;5042238;28;20200;-85
2023/01/31 03:59:19;;;;;;;13.93;10.07;;;1.80;99.90;;;;;;5041549;28;20551;-85
2023/01/31 04:01:49;;;;;;;13.70;10.20;;;1.80;99.90;;;;;;5040339;28;20164;-86
2023/01/31 04:04:24;;;;;;;10.40;9.10;;;1.80;99.90;;;;;;5040959;28;20189;-85
2023/01/31 04:06:50;;;;;;;12.17;9.77;;;1.70;99.90;;;;;;5040251;28;20168;-85
2023/01/31 04:09:16;;;;;;;13.47;10.73;;;1.70;99.90;;;;;;5039747;28;20266;-85
2023/01/31 04:11:45;;;;;;;11.87;9.27;;;1.70;99.90;;;;;;5041361;28;20193;-85
2023/01/31 04:14:11;;;;;;;12.07;9.80;;;1.60;99.90;;;;;;5044709;28;20177;-85
2023/01/31 04:16:36;;;;;;;12.07;9.90;;;1.60;99.90;;;;;;5059089;28;20224;-87
2023/01/31 04:19:02;;;;;;;12.17;10.53;;;1.60;99.90;;;;;;5058024;28;20238;-85
2023/01/31 04:21:28;;;;;;;12.43;10.37;;;1.50;99.90;;;;;;5056706;28;20199;-86
2023/01/31 04:23:54;;;;;;;10.50;9.40;;;1.40;99.90;;;;;;5056570;28;20224;-85
2023/01/31 04:26:19;;;;;;;13.53;11.10;;;1.40;99.90;;;;;;5050129;28;20196;-84
2023/01/31 04:28:45;;;;;;;12.33;9.80;;;1.40;99.90;;;;;;5039639;28;20211;-85
2023/01/31 04:31:10;;;;;;;13.17;10.07;;;1.50;99.90;;;;;;5038228;28;20173;-86
2023/01/31 04:33:36;;;;;;;12.93;10.00;;;1.40;99.90;;;;;;5037838;28;20713;-85
2023/01/31 04:36:02;;;;;;;12.73;10.40;;;1.40;99.90;;;;;;5037155;28;20271;-85
2023/01/31 04:38:28;;;;;;;11.97;10.10;;;1.40;99.90;;;;;;5038047;28;20192;-85
2023/01/31 04:40:53;;;;;;;13.43;10.33;;;1.30;99.90;;;;;;5039114;28;20196;-84
2023/01/31 04:43:19;;;;;;;14.53;11.47;;;1.30;99.90;;;;;;5038826;28;20236;-85
2023/01/31 04:45:44;;;;;;;12.97;10.37;;;1.30;99.90;;;;;;5038821;28;20173;-85
2023/01/31 04:48:10;;;;;;;12.53;10.33;;;1.20;99.90;;;;;;5037837;28;20674;-86
2023/01/31 04:50:36;;;;;;;11.33;9.60;;;1.30;99.90;;;;;;5038010;28;20759;-87
2023/01/31 04:53:01;;;;;;;11.50;10.30;;;1.20;99.90;;;;;;5037820;28;20192;-84
2023/01/31 04:55:27;;;;;;;15.67;11.87;;;1.10;99.90;;;;;;5036050;28;20185;-86
2023/01/31 04:57:53;;;;;;;13.33;10.80;;;1.10;99.90;;;;;;5035975;28;20181;-84
2023/01/31 05:00:19;;;;;;;14.10;11.10;;;1.10;99.90;;;;;;5038521;28;20498;-84
2023/01/31 05:02:45;;;;;;;12.67;10.97;;;1.10;99.90;;;;;;5038091;28;20248;-85
2023/01/31 05:05:14;;;;;;;14.87;11.50;;;1.20;99.90;;;;;;5038138;28;20185;-85
2023/01/31 05:07:39;;;;;;;13.73;11.20;;;1.20;99.90;;;;;;5037426;28;20177;-86
2023/01/31 05:10:06;;;;;;;16.00;11.60;;;1.30;99.90;;;;;;5040235;28;20196;-85
2023/01/31 05:12:31;;;;;;;15.13;11.67;;;1.10;99.90;;;;;;5039286;28;20262;-85
2023/01/31 05:14:57;;;;;;;13.73;10.53;;;1.10;99.90;;;;;;5030951;28;20181;-85
2023/01/31 05:17:28;;;;;;;12.00;10.37;;;1.30;99.90;;;;;;5039595;28;20193;-86
2023/01/31 05:19:55;;;;;;;13.73;11.00;;;1.30;99.90;;;;;;5040319;28;20468;-86
2023/01/31 05:22:21;;;;;;;12.97;11.57;;;1.30;99.90;;;;;;5039106;28;20185;-84
2023/01/31 05:24:47;;;;;;;16.00;10.90;;;1.20;99.90;;;;;;5036504;28;20177;-85
2023/01/31 05:27:13;;;;;;;13.13;10.17;;;1.30;99.90;;;;;;5019276;28;20178;-86
2023/01/31 05:29:39;;;;;;;12.30;10.77;;;1.40;99.90;;;;;;5019280;28;20205;-84
2023/01/31 05:32:05;;;;;;;11.13;9.70;;;1.40;99.90;;;;;;5024170;28;20181;-87
2023/01/31 05:34:32;;;;;;;12.10;10.80;;;1.30;99.90;;;;;;5039727;28;20239;-84
2023/01/31 05:36:58;;;;;;;13.93;11.23;;;1.30;99.90;;;;;;5040206;28;20199;-83
2023/01/31 05:39:24;;;;;;;14.13;12.00;;;1.10;99.90;;;;;;5040626;28;20201;-85
2023/01/31 05:41:51;;;;;;;15.50;12.17;;;1.10;99.90;;;;;;5041010;28;20419;-84
2023/01/31 05:44:17;;;;;;;16.10;13.43;;;1.10;99.90;;;;;;5040785;28;20270;-84
2023/01/31 05:46:43;;;;;;;16.70;12.43;;;1.10;99.90;;;;;;5040113;28;20252;-85
2023/01/31 05:49:09;;;;;;;18.00;13.83;;;1.20;99.90;;;;;;5039660;28;20193;-84
2023/01/31 05:51:35;;;;;;;22.93;14.20;;;1.20;99.90;;;;;;5039884;28;20227;-83
2023/01/31 05:54:01;;;;;;;22.00;13.77;;;1.20;99.90;;;;;;5040168;28;20606;-84
2023/01/31 05:56:26;;;;;;;18.20;12.90;;;1.30;99.90;;;;;;5038910;28;20181;-84
2023/01/31 05:58:52;;;;;;;16.77;12.93;;;1.40;99.90;;;;;;5038704;28;20209;-85
2023/01/31 06:01:23;;;;;;;18.87;13.47;;;1.50;99.90;;;;;;5039740;28;20181;-85
2023/01/31 06:03:48;;;;;;;18.63;13.30;;;1.50;99.90;;;;;;5042780;28;20211;-86
2023/01/31 06:06:14;;;;;;;18.10;13.07;;;1.40;99.90;;;;;;5044285;28;20549;-86
2023/01/31 06:08:43;;;;;;;20.17;13.83;;;1.50;99.90;;;;;;5043700;28;20212;-85
2023/01/31 06:11:10;;;;;;;22.83;14.63;;;1.50;99.90;;;;;;5043129;28;20279;-85
2023/01/31 06:13:37;;;;;;;27.27;14.87;;;1.40;99.90;;;;;;5031924;28;20725;-85
2023/01/31 06:16:03;;;;;;;21.03;13.57;;;1.50;99.90;;;;;;5027233;28;20180;-84
2023/01/31 06:18:29;;;;;;;23.30;14.77;;;1.50;99.90;;;;;;5024002;28;20185;-84
2023/01/31 06:20:55;;;;;;;26.27;15.80;;;1.50;99.90;;;;;;5028260;28;20189;-85
2023/01/31 06:23:20;;;;;;;21.07;14.60;;;1.50;99.90;;;;;;5024200;28;20213;-85
2023/01/31 06:25:50;;;;;;;25.20;15.10;;;1.50;99.90;;;;;;5026090;28;20185;-86
2023/01/31 06:28:17;;;;;;;20.53;13.97;;;1.50;99.90;;;;;;5024922;28;20185;-84
2023/01/31 06:30:43;;;;;;;19.30;13.03;;;1.60;99.90;;;;;;5034962;28;20202;-85
2023/01/31 06:33:09;;;;;;;25.07;15.10;;;1.70;99.90;;;;;;5019742;28;20186;-85
2023/01/31 06:35:35;;;;;;;22.90;15.40;;;1.70;99.90;;;;;;5021383;28;20277;-85
2023/01/31 06:38:01;;;;;;;22.57;15.83;;;1.70;99.90;;;;;;5021424;28;20188;-84
2023/01/31 06:40:27;;;;;;;23.73;15.00;;;1.70;99.90;;;;;;5020601;28;20269;-85
2023/01/31 06:42:52;;;;;;;26.23;16.23;;;1.70;99.90;;;;;;5031262;28;20261;-85
2023/01/31 06:45:18;;;;;;;23.70;15.97;;;1.70;99.90;;;;;;5041354;28;20177;-85
2023/01/31 06:47:47;;;;;;;19.47;14.90;;;1.70;99.90;;;;;;5036044;28;20189;-84
2023/01/31 06:50:13;;;;;;;20.10;14.70;;;1.80;99.90;;;;;;5015004;28;20296;-85
2023/01/31 06:52:39;;;;;;;19.47;13.87;;;1.80;99.90;;;;;;5020374;28;20621;-85
2023/01/31 06:55:05;;;;;;;21.03;14.97;;;1.70;99.90;;;;;;5020456;28;20197;-84
2023/01/31 06:57:31;;;;;;;19.93;13.60;;;1.70;99.90;;;;;;5022604;28;20934;-86
2023/01/31 06:59:57;;;;;;;18.13;13.57;;;1.70;99.90;;;;;;5024449;28;20205;-85
2023/01/31 07:02:22;;;;;;;20.07;14.07;;;1.70;99.90;;;;;;5024454;28;20204;-84
2023/01/31 07:04:48;;;;;;;19.47;15.20;;;1.70;99.90;;;;;;5023414;28;20628;-86
2023/01/31 07:07:13;;;;;;;19.10;13.63;;;1.60;99.90;;;;;;5024908;28;20674;-85
2023/01/31 07:09:39;;;;;;;20.30;14.27;;;1.60;99.90;;;;;;5030979;28;20215;-85
2023/01/31 07:12:05;;;;;;;23.00;15.10;;;1.60;99.90;;;;;;5024540;28;20193;-85
2023/01/31 07:14:30;;;;;;;22.20;15.93;;;1.40;99.90;;;;;;5025206;28;20283;-85
2023/01/31 07:16:56;;;;;;;18.87;14.27;;;1.30;99.90;;;;;;5025536;28;20213;-85
2023/01/31 07:19:21;;;;;;;20.67;14.83;;;1.30;99.90;;;;;;5025071;28;20208;-85
2023/01/31 07:21:48;;;;;;;19.27;14.43;;;1.30;99.90;;;;;;5027223;28;20196;-85
2023/01/31 07:24:14;;;;;;;21.73;15.73;;;1.20;99.90;;;;;;5025373;28;20203;-85
2023/01/31 07:26:40;;;;;;;19.53;14.20;;;1.10;99.90;;;;;;5019431;28;20194;-85
2023/01/31 07:29:06;;;;;;;22.53;14.47;;;1.20;99.90;;;;;;5024765;28;21015;-84
2023/01/31 07:31:32;;;;;;;16.53;12.70;;;1.20;99.90;;;;;;5024762;28;20217;-85
2023/01/31 07:33:58;;;;;;;16.00;13.00;;;1.30;99.90;;;;;;5022942;28;20277;-84
2023/01/31 07:36:25;;;;;;;18.03;14.20;;;1.20;99.90;;;;;;5021724;28;20197;-84
2023/01/31 07:38:55;;;;;;;15.63;12.57;;;1.10;99.90;;;;;;5024360;28;20210;-85
2023/01/31 07:41:22;;;;;;;16.57;13.13;;;1.30;99.90;;;;;;5023804;28;20189;-85
2023/01/31 07:43:47;;;;;;;16.73;12.77;;;1.20;99.90;;;;;;5020352;28;20213;-85
2023/01/31 07:46:13;;;;;;;15.33;11.63;;;1.40;99.90;;;;;;5017966;28;20189;-85
2023/01/31 07:48:38;;;;;;;20.80;12.87;;;1.40;99.90;;;;;;5017515;28;20200;-85
2023/01/31 07:51:05;;;;;;;14.80;12.53;;;1.30;99.90;;;;;;5018157;28;20429;-86
2023/01/31 07:53:34;;;;;;;16.83;12.77;;;1.30;99.90;;;;;;5019205;28;20215;-85
2023/01/31 07:56:14;;;;;;;15.87;12.87;;;1.30;99.90;;;;;;5018017;28;20193;-85
2023/01/31 07:58:41;;;;;;;14.27;11.30;;;1.30;99.90;;;;;;5018270;28;20199;-85
2023/01/31 08:04:06;;;;;;;16.30;11.97;;;1.40;99.90;;;;;;5017003;28;21367;-85
2023/01/31 08:06:32;;;;;;;16.00;12.60;;;1.50;99.90;;;;;;5020616;28;20193;-84
2023/01/31 08:08:59;;;;;;;13.47;11.83;;;1.50;99.90;;;;;;5022329;28;20833;-85
2023/01/31 08:11:24;;;;;;;13.50;10.97;;;1.60;99.90;;;;;;5020137;28;20947;-85
2023/01/31 08:13:50;;;;;;;15.57;11.50;;;1.50;99.90;;;;;;5021287;28;20203;-85
2023/01/31 08:16:16;;;;;;;15.17;10.97;;;1.60;99.90;;;;;;5019466;28;20253;-85
2023/01/31 08:18:41;;;;;;;13.90;11.20;;;1.70;99.90;;;;;;5020841;28;20198;-84
2023/01/31 08:21:10;;;;;;;13.53;11.13;;;1.70;99.90;;;;;;5018515;28;20590;-85
2023/01/31 08:23:38;;;;;;;14.27;11.97;;;1.70;99.90;;;;;;5021001;28;20215;-85
2023/01/31 08:26:09;;;;;;;15.07;12.70;;;1.70;99.90;;;;;;5021083;28;20186;-85
2023/01/31 08:28:35;;;;;;;15.20;11.50;;;1.70;99.90;;;;;;5019437;28;20189;-84
2023/01/31 08:31:01;;;;;;;13.13;11.47;;;1.70;99.90;;;;;;5022670;28;20919;-85
2023/01/31 08:33:26;;;;;;;15.50;11.83;;;1.70;99.90;;;;;;5025304;28;20739;-84
2023/01/31 08:35:52;;;;;;;15.07;12.00;;;1.60;99.90;;;;;;5017498;28;20231;-85
2023/01/31 08:38:18;;;;;;;17.10;11.97;;;1.70;99.90;;;;;;5021350;28;20193;-84
2023/01/31 08:40:44;;;;;;;14.90;11.40;;;1.70;99.90;;;;;;5019881;28;20699;-83
2023/01/31 08:43:10;;;;;;;17.10;11.97;;;1.70;99.90;;;;;;5017352;28;20305;-86
2023/01/31 08:45:35;;;;;;;14.97;12.63;;;1.70;99.90;;;;;;5013898;28;20323;-84
2023/01/31 08:48:02;;;;;;;16.47;12.20;;;1.70;99.90;;;;;;5018558;28;20183;-84
2023/01/31 08:50:30;;;;;;;18.53;12.73;;;1.60;99.90;;;;;;5017115;28;20225;-84
2023/01/31 08:53:02;;;;;;;15.60;12.50;;;1.70;99.90;;;;;;5017588;28;20197;-85
2023/01/31 08:55:29;;;;;;;15.60;12.27;;;1.80;99.90;;;;;;5019829;28;20224;-85
2023/01/31 08:57:56;;;;;;;12.93;11.47;;;2.00;99.90;;;;;;5032575;28;20182;-85
2023/01/31 09:00:22;;;;;;;15.23;11.77;;;2.10;99.90;;;;;;5020202;28;20276;-85
2023/01/31 09:02:52;;;;;;;17.37;12.53;;;2.10;99.90;;;;;;5024551;28;20225;-85
2023/01/31 09:05:18;;;;;;;14.57;11.87;;;2.10;99.90;;;;;;5022896;28;20196;-85
2023/01/31 09:07:43;;;;;;;14.80;11.83;;;2.30;99.90;;;;;;5021970;28;20192;-84
2023/01/31 09:10:10;;;;;;;14.57;11.00;;;2.20;99.90;;;;;;5022538;28;20217;-84
2023/01/31 09:12:35;;;;;;;14.90;11.13;;;2.20;99.90;;;;;;5024295;28;20186;-84
2023/01/31 09:15:02;;;;;;;14.10;11.37;;;2.20;99.90;;;;;;5021237;28;20257;-85
2023/01/31 09:17:29;;;;;;;13.17;10.33;;;2.30;99.90;;;;;;5021150;28;20278;-85
2023/01/31 09:19:56;;;;;;;13.97;11.07;;;2.30;99.90;;;;;;5025262;28;20205;-85
2023/01/31 09:22:21;;;;;;;13.43;10.27;;;2.30;99.90;;;;;;5023549;28;20272;-85
2023/01/31 09:24:47;;;;;;;14.00;10.60;;;2.50;99.90;;;;;;5020578;28;20854;-85
2023/01/31 09:27:13;;;;;;;11.97;9.10;;;2.50;99.90;;;;;;5022880;28;20208;-84
2023/01/31 09:29:39;;;;;;;13.90;11.47;;;2.60;99.90;;;;;;5023115;28;20204;-85
2023/01/31 09:32:06;;;;;;;14.73;9.90;;;2.60;99.90;;;;;;5023642;28;20197;-85
2023/01/31 09:34:32;;;;;;;16.80;10.67;;;2.60;99.90;;;;;;5021156;28;20185;-85
2023/01/31 09:36:58;;;;;;;11.90;8.70;;;2.60;99.90;;;;;;5021643;28;20263;-84
2023/01/31 09:39:24;;;;;;;14.87;10.67;;;2.50;99.90;;;;;;5019533;28;20984;-83
2023/01/31 09:42:22;;;;;;;14.30;11.23;;;2.50;99.90;;;;;;5019001;28;20185;-84
2023/01/31 09:45:02;;;;;;;15.57;11.13;;;2.40;99.90;;;;;;5007739;28;20240;-86
2023/01/31 09:47:42;;;;;;;12.90;10.67;;;2.60;99.90;;;;;;5025790;28;20814;-86
2023/01/31 09:50:33;;;;;;;15.03;10.37;;;2.70;99.90;;;;;;5026030;28;20220;-85
2023/01/31 09:52:59;;;;;;;16.03;11.40;;;2.60;99.90;;;;;;5024648;28;20220;-85
2023/01/31 09:55:47;;;;;;;15.20;11.40;;;2.50;99.90;;;;;;5024580;28;20273;-84
2023/01/31 09:58:45;;;;;;;15.57;11.03;;;2.60;99.90;;;;;;5026676;28;20220;-86
2023/01/31 10:01:22;;;;;;;12.90;9.63;;;2.70;99.90;;;;;;5005677;28;20224;-85
2023/01/31 10:03:59;;;;;;;13.77;10.53;;;2.80;99.90;;;;;;5024716;28;20343;-86
2023/01/31 10:06:34;;;;;;;15.97;11.17;;;2.80;99.90;;;;;;5023151;28;20221;-85
2023/01/31 10:09:24;;;;;;;12.57;9.57;;;2.70;99.90;;;;;;5027609;28;20205;-85
2023/01/31 10:11:55;;;;;;;11.43;9.13;;;2.80;99.90;;;;;;5025420;28;20239;-85
2023/01/31 10:14:42;;;;;;;15.57;11.93;;;2.80;99.90;;;;;;5027125;28;20197;-85
2023/01/31 10:17:14;;;;;;;15.17;11.17;;;2.60;99.90;;;;;;5023480;28;20212;-84
2023/01/31 10:19:49;;;;;;;14.87;11.27;;;2.60;99.90;;;;;;5024357;28;20392;-84
2023/01/31 10:22:34;;;;;;;15.60;11.43;;;2.80;99.90;;;;;;5023909;28;20197;-84
2023/01/31 10:25:20;;;;;;;15.20;10.47;;;2.80;99.90;;;;;;5025245;28;20204;-86
2023/01/31 10:28:05;;;;;;;13.87;10.17;;;2.70;99.90;;;;;;5027687;28;20694;-84
2023/01/31 10:31:23;;;;;;;13.07;10.07;;;2.80;99.90;;;;;;5027210;28;20212;-85
2023/01/31 10:33:51;;;;;;;14.17;11.63;;;2.80;99.90;;;;;;5025247;28;20185;-84
2023/01/31 10:36:47;;;;;;;15.90;11.33;;;2.80;99.90;;;;;;5027697;28;20217;-87
2023/01/31 10:39:36;;;;;;;14.23;11.40;;;2.80;99.90;;;;;;5007537;28;20232;-84
2023/01/31 10:42:02;;;;;;;14.70;10.07;;;2.70;99.90;;;;;;5028581;28;20196;-86
2023/01/31 10:44:51;;;;;;;13.43;9.50;;;2.70;99.90;;;;;;5030700;28;20279;-84
2023/01/31 10:47:18;;;;;;;11.27;9.77;;;2.80;99.90;;;;;;5028718;28;21967;-85
2023/01/31 10:49:47;;;;;;;15.73;9.43;;;3.00;99.90;;;;;;5027992;28;21046;-84
2023/01/31 10:52:54;;;;;;;13.87;9.43;;;3.30;99.90;;;;;;5031575;28;20213;-85
2023/01/31 10:55:37;;;;;;;14.63;8.97;;;3.30;99.90;;;;;;4991305;28;20253;-86
2023/01/31 10:58:03;;;;;;;10.63;9.47;;;3.30;99.90;;;;;;4990791;28;20285;-86
2023/01/31 11:00:31;;;;;;;10.57;9.20;;;3.30;99.90;;;;;;5009000;28;20267;-84
2023/01/31 11:02:58;;;;;;;12.43;8.67;;;3.30;99.90;;;;;;5025703;28;20217;-85
2023/01/31 11:05:27;;;;;;;12.10;9.27;;;3.40;99.90;;;;;;5027053;28;20195;-85
2023/01/31 11:07:56;;;;;;;14.23;9.20;;;3.50;99.90;;;;;;5032922;28;20209;-84
2023/01/31 11:10:26;;;;;;;12.70;8.93;;;3.70;99.90;;;;;;5040307;28;20283;-86
2023/01/31 11:12:56;;;;;;;11.43;7.97;;;4.00;99.90;;;;;;5043817;28;20192;-84
2023/01/31 11:15:25;;;;;;;11.70;8.70;;;4.30;97.40;;;;;;5044251;28;20202;-87
2023/01/31 11:17:52;;;;;;;12.00;8.40;;;4.30;97.80;;;;;;5045592;28;20197;-86
2023/01/31 11:20:31;;;;;;;12.17;8.87;;;4.10;98.30;;;;;;5038831;28;20271;-85
2023/01/31 11:22:59;;;;;;;12.77;9.00;;;3.80;98.60;;;;;;5024663;28;20219;-85
2023/01/31 11:25:27;;;;;;;11.50;9.03;;;3.60;99.90;;;;;;5023567;28;20429;-85
2023/01/31 11:27:57;;;;;;;13.30;9.13;;;3.60;99.90;;;;;;5023577;28;20197;-84
2023/01/31 11:30:29;;;;;;;12.43;8.97;;;3.60;99.90;;;;;;5026210;28;20338;-85
2023/01/31 11:32:55;;;;;;;12.23;8.87;;;3.50;99.90;;;;;;5025074;28;20197;-82
2023/01/31 11:35:29;;;;;;;13.23;9.50;;;3.40;99.90;;;;;;5022451;28;20555;-83
2023/01/31 11:38:00;;;;;;;13.47;9.30;;;3.60;99.90;;;;;;5026299;28;20208;-83
2023/01/31 11:40:36;;;;;;;12.57;8.43;;;3.50;99.90;;;;;;5024896;28;20217;-85
2023/01/31 11:43:12;;;;;;;9.87;7.77;;;3.40;99.90;;;;;;5026268;28;20212;-85
2023/01/31 11:45:43;;;;;;;10.57;8.47;;;3.40;99.90;;;;;;5023591;28;20189;-85
2023/01/31 11:48:22;;;;;;;10.33;8.67;;;3.50;99.90;;;;;;5028340;28;20177;-85
2023/01/31 11:50:57;;;;;;;12.17;8.30;;;3.50;99.90;;;;;;5059756;28;20855;-85
2023/01/31 11:53:29;;;;;;;10.97;9.13;;;3.40;99.90;;;;;;5027254;28;20176;-85
2023/01/31 11:56:10;;;;;;;12.40;8.87;;;3.40;99.90;;;;;;5024754;28;20201;-86
2023/01/31 11:58:40;;;;;;;12.50;8.27;;;3.40;99.90;;;;;;5027571;28;20236;-86
2023/01/31 12:01:17;;;;;;;13.10;9.20;;;3.40;99.90;;;;;;5026058;28;20631;-85
2023/01/31 12:03:53;;;;;;;10.93;8.43;;;3.40;99.90;;;;;;5028350;28;20220;-84
2023/01/31 12:06:29;;;;;;;12.07;9.13;;;3.50;99.90;;;;;;5024078;28;20185;-84
2023/01/31 12:08:56;;;;;;;11.03;9.10;;;3.30;99.90;;;;;;5023488;28;20216;-84
2023/01/31 12:11:32;;;;;;;11.97;9.17;;;3.40;99.90;;;;;;5026598;28;20216;-84
2023/01/31 12:14:18;;;;;;;10.67;8.63;;;3.60;99.90;;;;;;5028232;28;20267;-84
2023/01/31 12:16:45;;;;;;;14.07;7.93;;;3.60;99.90;;;;;;5029295;28;20237;-84
2023/01/31 12:19:17;;;;;;;14.30;8.03;;;3.70;99.90;;;;;;5026368;28;20891;-86
2023/01/31 12:21:58;;;;;;;11.87;7.60;;;3.80;99.90;;;;;;5030237;28;20190;-85
2023/01/31 12:24:42;;;;;;;9.23;7.73;;;4.00;98.30;;;;;;5025450;28;21246;-82
2023/01/31 12:27:24;;;;;;;11.43;7.47;;;4.00;99.50;;;;;;5025097;28;20181;-86
2023/01/31 12:30:21;;;;;;;11.90;7.93;;;4.10;98.70;;;;;;5025696;28;20201;-84
2023/01/31 12:32:47;;;;;;;11.03;7.53;;;4.00;97.70;;;;;;5024565;28;20177;-89
2023/01/31 12:35:18;;;;;;;10.47;7.63;;;3.90;98.00;;;;;;5019173;28;20338;-86
2023/01/31 12:38:06;;;;;;;10.23;7.87;;;3.90;98.00;;;;;;5022949;28;20268;-85
2023/01/31 12:40:59;;;;;;;12.90;7.70;;;3.90;99.00;;;;;;5025006;28;20264;-87
2023/01/31 12:43:44;;;;;;;8.70;6.73;;;3.90;98.20;;;;;;5025144;28;20287;-85
2023/01/31 12:46:24;;;;;;;12.47;6.30;;;3.80;98.30;;;;;;5024897;28;20188;-85
2023/01/31 12:49:15;;;;;;;11.17;7.77;;;3.90;98.60;;;;;;5023876;28;20208;-84
2023/01/31 12:52:08;;;;;;;10.10;6.37;;;3.90;97.40;;;;;;5020997;28;20192;-85
2023/01/31 12:54:55;;;;;;;12.20;6.80;;;4.00;97.10;;;;;;5021305;28;20190;-85
2023/01/31 12:57:32;;;;;;;8.43;6.53;;;4.00;95.80;;;;;;5017390;28;20288;-86
2023/01/31 13:00:36;;;;;;;9.20;5.90;;;4.00;96.80;;;;;;5021902;28;20231;-85
2023/01/31 13:03:34;;;;;;;7.87;6.03;;;4.10;95.70;;;;;;5011189;28;20220;-85
2023/01/31 13:06:17;;;;;;;8.93;5.50;;;4.20;94.90;;;;;;5018780;28;20729;-87
2023/01/31 13:08:56;;;;;;;9.57;6.70;;;4.10;95.80;;;;;;5023771;28;20196;-85
2023/01/31 13:11:54;;;;;;;7.67;6.20;;;4.20;95.60;;;;;;5023674;28;20189;-85